createdAt,value
2018-08-28T00:00:13.300Z,78.00
2018-08-28T00:02:48.139Z,78.10
2018-08-28T00:05:22.654Z,78.10
2018-08-28T00:07:57.663Z,78.30
2018-08-28T00:10:32.467Z,78.30
2018-08-28T00:13:06.584Z,78.20
2018-08-28T00:15:40.692Z,78.30
2018-08-28T00:18:14.972Z,78.60
2018-08-28T00:20:49.178Z,78.50
2018-08-28T00:23:24.827Z,78.40
2018-08-28T00:25:59.145Z,78.10
2018-08-28T00:28:33.718Z,78.20
2018-08-28T00:31:08.063Z,78.70
2018-08-28T00:33:42.294Z,78.80
2018-08-28T00:36:16.290Z,78.90
2018-08-28T00:38:51.380Z,79.10
2018-08-28T00:41:25.628Z,78.80
2018-08-28T00:43:59.796Z,78.90
2018-08-28T00:46:34.719Z,78.90
2018-08-28T00:49:08.701Z,78.90
2018-08-28T00:51:42.714Z,79.10
2018-08-28T00:54:17.480Z,79.10
2018-08-28T00:56:51.875Z,79.20
2018-08-28T00:59:26.764Z,79.20
2018-08-28T01:02:01.984Z,79.10
2018-08-28T01:04:36.386Z,79.10
2018-08-28T01:07:11.452Z,79.30
2018-08-28T01:09:45.230Z,79.00
2018-08-28T01:12:19.318Z,79.20
2018-08-28T01:14:53.748Z,79.20
2018-08-28T01:17:27.925Z,79.30
2018-08-28T01:20:02.388Z,79.30
2018-08-28T01:22:36.729Z,79.20
2018-08-28T01:25:10.890Z,79.20
2018-08-28T01:27:45.263Z,79.30
2018-08-28T01:30:24.929Z,79.30
2018-08-28T01:32:59.895Z,79.30
2018-08-28T01:35:34.831Z,78.90
2018-08-28T01:38:08.844Z,79.20
2018-08-28T01:40:42.644Z,79.40
2018-08-28T01:43:23.821Z,79.60
2018-08-28T01:45:58.327Z,79.60
2018-08-28T01:48:33.008Z,79.40
2018-08-28T01:51:07.698Z,79.70
2018-08-28T01:53:41.699Z,79.80
2018-08-28T01:56:16.574Z,79.80
2018-08-28T01:58:51.363Z,79.90
2018-08-28T02:01:25.904Z,80.10
2018-08-28T02:04:00.010Z,80.00
2018-08-28T02:06:34.025Z,79.60
2018-08-28T02:09:09.109Z,79.90
2018-08-28T02:11:44.430Z,80.10
2018-08-28T02:14:19.218Z,80.20
2018-08-28T02:16:53.383Z,80.40
2018-08-28T02:19:27.747Z,80.40
2018-08-28T02:22:02.538Z,80.40
2018-08-28T02:24:37.608Z,80.20
2018-08-28T02:27:18.559Z,80.40
2018-08-28T02:29:53.253Z,80.50
2018-08-28T02:32:27.864Z,80.50
2018-08-28T02:35:02.448Z,80.30
2018-08-28T02:37:36.624Z,80.50
2018-08-28T02:40:10.685Z,80.50
2018-08-28T02:42:45.366Z,80.70
2018-08-28T02:45:19.413Z,80.80
2018-08-28T02:47:53.208Z,80.70
2018-08-28T02:50:27.898Z,80.70
2018-08-28T02:53:01.886Z,80.70
2018-08-28T02:55:36.632Z,80.70
2018-08-28T02:58:11.001Z,81.40
2018-08-28T03:00:45.068Z,81.00
2018-08-28T03:03:18.963Z,81.00
2018-08-28T03:05:53.849Z,81.10
2018-08-28T03:08:27.964Z,81.20
2018-08-28T03:11:02.145Z,81.10
2018-08-28T03:13:36.112Z,81.20
2018-08-28T03:16:10.395Z,81.50
2018-08-28T03:18:44.363Z,81.40
2018-08-28T03:21:18.453Z,81.50
2018-08-28T03:23:52.573Z,81.40
2018-08-28T03:26:26.730Z,81.40
2018-08-28T03:29:01.233Z,81.60
2018-08-28T03:31:35.553Z,81.90
2018-08-28T03:34:09.900Z,81.80
2018-08-28T03:36:44.865Z,81.90
2018-08-28T03:39:18.819Z,82.10
2018-08-28T03:41:52.786Z,82.20
2018-08-28T03:44:26.623Z,82.20
2018-08-28T03:47:00.752Z,82.10
2018-08-28T03:49:34.537Z,82.20
2018-08-28T03:52:08.634Z,82.60
2018-08-28T03:54:43.971Z,82.70
2018-08-28T03:57:18.779Z,82.30
2018-08-28T03:59:52.914Z,82.80
2018-08-28T04:02:27.257Z,82.80
2018-08-28T04:05:02.146Z,82.90
2018-08-28T04:07:37.227Z,84.30
2018-08-28T04:10:11.968Z,83.90
2018-08-28T04:12:46.722Z,84.00
2018-08-28T04:15:21.393Z,84.10
2018-08-28T04:17:55.788Z,84.00
2018-08-28T04:20:30.824Z,83.70
2018-08-28T04:23:05.334Z,83.70
2018-08-28T04:25:39.370Z,84.30
2018-08-28T04:28:13.693Z,84.00
2018-08-28T04:30:48.257Z,83.80
2018-08-28T04:33:22.510Z,83.90
2018-08-28T04:35:56.417Z,83.90
2018-08-28T04:38:30.966Z,83.60
2018-08-28T04:41:06.020Z,83.90
2018-08-28T04:43:41.001Z,84.10
2018-08-28T04:46:15.159Z,84.10
2018-08-28T04:48:49.978Z,84.00
2018-08-28T04:51:24.565Z,84.20
2018-08-28T04:53:59.321Z,84.50
2018-08-28T04:56:33.434Z,84.50
2018-08-28T04:59:07.549Z,84.70
2018-08-28T05:01:43.054Z,84.80
2018-08-28T05:04:18.240Z,85.50
2018-08-28T05:06:52.885Z,84.60
2018-08-28T05:09:26.928Z,84.80
2018-08-28T05:12:01.299Z,85.30
2018-08-28T05:14:35.460Z,85.40
2018-08-28T05:17:09.484Z,85.60
2018-08-28T05:19:44.249Z,85.60
2018-08-28T05:22:18.355Z,85.60
2018-08-28T05:24:53.756Z,85.70
2018-08-28T05:27:28.037Z,85.40
2018-08-28T05:30:02.971Z,85.40
2018-08-28T05:32:37.399Z,85.40
2018-08-28T05:35:11.774Z,84.30
2018-08-28T05:37:45.580Z,84.30
2018-08-28T05:40:19.640Z,85.00
2018-08-28T05:42:53.784Z,84.70
2018-08-28T05:45:28.081Z,84.40
2018-08-28T05:48:01.939Z,84.20
2018-08-28T05:50:36.200Z,84.30
2018-08-28T05:53:10.480Z,84.50
2018-08-28T05:55:45.992Z,83.90
2018-08-28T05:58:20.144Z,83.90
2018-08-28T06:00:54.951Z,83.50
2018-08-28T06:03:29.272Z,84.40
2018-08-28T06:06:03.316Z,83.60
2018-08-28T06:08:37.421Z,83.60
2018-08-28T06:11:11.455Z,84.60
2018-08-28T06:13:45.576Z,83.70
2018-08-28T06:16:20.031Z,83.00
2018-08-28T06:18:54.639Z,83.10
2018-08-28T06:21:28.892Z,83.00
2018-08-28T06:24:02.910Z,83.20
2018-08-28T06:26:37.225Z,83.20
2018-08-28T06:29:11.088Z,82.50
2018-08-28T06:31:46.064Z,82.60
2018-08-28T06:34:20.977Z,82.60
2018-08-28T06:36:55.604Z,82.40
2018-08-28T06:39:29.902Z,82.40
2018-08-28T06:42:04.860Z,83.40
2018-08-28T06:44:38.944Z,82.80
2018-08-28T06:47:13.291Z,82.20
2018-08-28T06:49:48.105Z,82.30
2018-08-28T06:52:22.664Z,82.60
2018-08-28T06:54:56.958Z,83.30
2018-08-28T06:57:32.020Z,82.50
2018-08-28T07:00:07.143Z,82.20
2018-08-28T07:02:41.180Z,82.10
2018-08-28T07:05:15.016Z,81.80
2018-08-28T07:07:49.459Z,81.80
2018-08-28T07:10:24.547Z,81.80
2018-08-28T07:12:58.460Z,81.40
2018-08-28T07:15:32.736Z,81.60
2018-08-28T07:18:07.149Z,81.80
2018-08-28T07:20:41.298Z,81.80
2018-08-28T07:23:15.264Z,81.30
2018-08-28T07:25:50.063Z,81.00
2018-08-28T07:28:25.098Z,81.20
2018-08-28T07:31:00.340Z,81.40
2018-08-28T07:33:34.285Z,81.00
2018-08-28T07:36:08.502Z,81.10
2018-08-28T07:38:42.389Z,80.10
2018-08-28T07:41:16.853Z,80.40
2018-08-28T07:43:50.739Z,80.30
2018-08-28T07:46:24.848Z,79.80
2018-08-28T07:48:58.902Z,80.20
2018-08-28T07:51:34.044Z,79.80
2018-08-28T07:54:08.087Z,80.10
2018-08-28T07:56:42.286Z,81.00
2018-08-28T07:59:16.672Z,80.30
2018-08-28T08:01:51.479Z,80.30
2018-08-28T08:04:26.140Z,80.30
2018-08-28T08:07:00.266Z,79.80
2018-08-28T08:09:34.945Z,79.50
2018-08-28T08:12:09.060Z,79.40
2018-08-28T08:14:43.181Z,79.40
2018-08-28T08:17:17.668Z,79.20
2018-08-28T08:19:51.784Z,79.50
2018-08-28T08:22:25.994Z,78.80
2018-08-28T08:25:00.380Z,78.80
2018-08-28T08:27:34.469Z,79.00
2018-08-28T08:30:09.024Z,79.30
2018-08-28T08:32:43.291Z,78.50
2018-08-28T08:35:18.358Z,78.70
2018-08-28T08:37:52.944Z,78.70
2018-08-28T08:40:27.478Z,78.90
2018-08-28T08:43:01.584Z,79.00
2018-08-28T08:45:35.856Z,79.10
2018-08-28T08:48:10.479Z,78.80
2018-08-28T08:50:44.925Z,78.60
2018-08-28T08:53:19.181Z,78.20
2018-08-28T08:55:53.537Z,77.60
2018-08-28T08:58:27.723Z,77.40
2018-08-28T09:01:02.346Z,76.90
2018-08-28T09:03:36.605Z,76.60
2018-08-28T09:06:10.922Z,77.00
2018-08-28T09:08:45.925Z,77.10
2018-08-28T09:11:20.013Z,76.50
2018-08-28T09:13:54.461Z,77.20
2018-08-28T09:16:28.381Z,76.80
2018-08-28T09:19:02.561Z,77.20
2018-08-28T09:21:36.646Z,77.20
2018-08-28T09:24:10.636Z,77.30
2018-08-28T09:26:44.969Z,77.20
2018-08-28T09:29:18.811Z,77.30
2018-08-28T09:31:53.071Z,77.10
2018-08-28T09:34:27.240Z,76.90
2018-08-28T09:37:02.433Z,76.50
2018-08-28T09:39:36.911Z,75.50
2018-08-28T09:42:11.818Z,74.20
2018-08-28T09:44:46.047Z,74.20
2018-08-28T09:47:20.187Z,73.90
2018-08-28T09:49:54.376Z,74.20
2018-08-28T09:52:29.619Z,74.40
2018-08-28T09:55:04.242Z,74.40
2018-08-28T09:57:40.549Z,74.60
2018-08-28T10:00:22.051Z,74.30
2018-08-28T10:02:58.410Z,73.40
2018-08-28T10:05:32.776Z,72.40
2018-08-28T10:08:07.206Z,72.70
2018-08-28T10:10:42.022Z,72.30
2018-08-28T10:13:16.924Z,71.80
2018-08-28T10:15:51.037Z,70.50
2018-08-28T10:18:25.327Z,70.90
2018-08-28T10:21:00.136Z,71.20
2018-08-28T10:23:34.458Z,70.90
2018-08-28T10:26:08.524Z,70.20
2018-08-28T10:28:43.941Z,69.40
2018-08-28T10:31:18.165Z,70.00
2018-08-28T10:33:52.635Z,70.10
2018-08-28T10:36:27.171Z,69.50
2018-08-28T10:39:02.526Z,69.90
2018-08-28T10:41:37.570Z,69.90
2018-08-28T10:44:11.747Z,70.50
2018-08-28T10:46:47.110Z,70.90
2018-08-28T10:49:21.499Z,70.70
2018-08-28T10:51:57.266Z,70.90
2018-08-28T10:54:32.403Z,69.50
2018-08-28T10:57:06.738Z,69.10
2018-08-28T10:59:41.521Z,70.10
2018-08-28T11:02:15.692Z,69.90
2018-08-28T11:04:50.099Z,70.10
2018-08-28T11:07:24.173Z,69.60
2018-08-28T11:09:58.535Z,69.00
2018-08-28T11:12:32.790Z,68.90
2018-08-28T11:15:07.509Z,68.50
2018-08-28T11:17:42.214Z,68.70
2018-08-28T11:20:16.987Z,69.10
2018-08-28T11:22:51.967Z,68.00
2018-08-28T11:25:26.679Z,67.20
2018-08-28T11:28:00.975Z,67.20
2018-08-28T11:30:35.340Z,66.60
2018-08-28T11:33:09.561Z,67.10
2018-08-28T11:35:43.970Z,66.50
2018-08-28T11:38:18.211Z,66.70
2018-08-28T11:40:52.333Z,65.70
2018-08-28T11:43:26.782Z,66.50
2018-08-28T11:46:01.159Z,65.60
2018-08-28T11:48:35.344Z,63.50
2018-08-28T11:51:09.371Z,61.60
2018-08-28T11:53:44.199Z,62.00
2018-08-28T11:56:19.515Z,63.80
2018-08-28T11:58:54.561Z,63.80
2018-08-28T12:01:29.709Z,63.60
2018-08-28T12:04:04.437Z,63.80
2018-08-28T12:06:38.549Z,64.60
2018-08-28T12:09:13.160Z,63.10
2018-08-28T12:11:47.761Z,63.80
2018-08-28T12:14:22.146Z,64.30
2018-08-28T12:16:56.375Z,64.80
2018-08-28T12:19:30.313Z,64.10
2018-08-28T12:22:04.881Z,63.80
2018-08-28T12:24:39.470Z,62.20
2018-08-28T12:27:14.193Z,62.20
2018-08-28T12:29:48.791Z,61.80
2018-08-28T12:32:22.944Z,61.60
2018-08-28T12:34:57.845Z,61.20
2018-08-28T12:37:31.931Z,60.70
2018-08-28T12:40:06.641Z,60.70
2018-08-28T12:42:41.696Z,61.00
2018-08-28T12:45:16.044Z,60.30
2018-08-28T12:47:50.227Z,59.80
2018-08-28T12:50:25.122Z,59.50
2018-08-28T12:53:00.242Z,59.10
2018-08-28T12:55:34.862Z,59.30
2018-08-28T12:58:09.275Z,59.90
2018-08-28T13:00:43.863Z,59.10
2018-08-28T13:03:18.732Z,57.90
2018-08-28T13:05:53.731Z,58.60
2018-08-28T13:08:27.667Z,56.70
2018-08-28T13:11:01.793Z,55.90
2018-08-28T13:13:36.136Z,53.90
2018-08-28T13:16:10.552Z,53.00
2018-08-28T13:18:45.030Z,52.20
2018-08-28T13:21:19.113Z,53.00
2018-08-28T13:23:53.419Z,51.30
2018-08-28T13:26:29.174Z,50.30
2018-08-28T13:29:04.236Z,50.30
2018-08-28T13:31:38.835Z,50.00
2018-08-28T13:34:12.874Z,49.00
2018-08-28T13:36:47.639Z,48.40
2018-08-28T13:39:22.869Z,46.30
2018-08-28T13:41:57.949Z,45.50
2018-08-28T13:44:31.976Z,43.50
2018-08-28T13:47:06.110Z,43.40
2018-08-28T13:49:40.015Z,43.90
2018-08-28T13:52:14.309Z,44.70
2018-08-28T13:54:48.780Z,44.50
2018-08-28T13:57:23.801Z,43.50
2018-08-28T13:59:58.265Z,42.30
2018-08-28T14:02:32.898Z,42.00
2018-08-28T14:05:07.879Z,43.00
2018-08-28T14:07:42.679Z,43.20
2018-08-28T14:10:17.426Z,44.80
2018-08-28T14:12:51.850Z,45.80
2018-08-28T14:15:26.643Z,46.80
2018-08-28T14:18:01.094Z,46.70
2018-08-28T14:20:35.420Z,46.10
2018-08-28T14:23:09.879Z,47.40
2018-08-28T14:25:44.874Z,47.90
2018-08-28T14:28:19.521Z,49.00
2018-08-28T14:30:54.023Z,47.50
2018-08-28T14:33:28.192Z,47.10
2018-08-28T14:36:02.999Z,47.50
2018-08-28T14:38:36.959Z,47.20
2018-08-28T14:41:11.441Z,47.30
2018-08-28T14:43:45.519Z,46.70
2018-08-28T14:46:19.881Z,46.90
2018-08-28T14:48:54.234Z,47.80
2018-08-28T14:51:28.194Z,48.20
2018-08-28T14:54:05.288Z,47.80
2018-08-28T14:56:40.598Z,47.30
2018-08-28T14:59:15.569Z,47.70
2018-08-28T15:01:50.169Z,47.60
2018-08-28T15:04:24.904Z,47.20
2018-08-28T15:06:59.125Z,47.90
2018-08-28T15:09:33.442Z,47.50
2018-08-28T15:12:07.719Z,47.80
2018-08-28T15:14:41.884Z,46.90
2018-08-28T15:17:17.232Z,46.70
2018-08-28T15:19:51.040Z,47.10
2018-08-28T15:22:26.202Z,47.40
2018-08-28T15:25:00.199Z,48.00
2018-08-28T15:27:34.726Z,48.00
2018-08-28T15:30:09.029Z,48.30
2018-08-28T15:32:44.072Z,47.40
2018-08-28T15:35:18.798Z,47.00
2018-08-28T15:37:53.418Z,46.90
2018-08-28T15:40:27.979Z,47.90
2018-08-28T15:43:03.099Z,47.90
2018-08-28T15:45:37.595Z,46.70
2018-08-28T15:48:12.721Z,46.80
2018-08-28T15:50:47.142Z,47.80
2018-08-28T15:53:21.279Z,47.30
2018-08-28T15:55:55.604Z,47.60
2018-08-28T15:58:29.881Z,47.70
2018-08-28T16:01:04.860Z,46.70
2018-08-28T16:03:39.203Z,46.50
2018-08-28T16:06:14.599Z,46.70
2018-08-28T16:08:48.975Z,45.40
2018-08-28T16:11:23.835Z,46.50
2018-08-28T16:13:58.865Z,45.50
2018-08-28T16:16:33.307Z,47.00
2018-08-28T16:19:07.529Z,45.90
2018-08-28T16:21:45.693Z,45.90
2018-08-28T16:24:20.348Z,45.50
2018-08-28T16:26:54.786Z,45.70
2018-08-28T16:29:29.909Z,44.80
2018-08-28T16:32:04.645Z,44.50
2018-08-28T16:34:38.811Z,44.30
2018-08-28T16:37:13.291Z,45.50
2018-08-28T16:39:48.133Z,44.40
2018-08-28T16:42:22.675Z,44.50
2018-08-28T16:44:57.456Z,44.70
2018-08-28T16:47:31.949Z,44.30
2018-08-28T16:50:06.511Z,44.10
2018-08-28T16:52:44.640Z,44.10
2018-08-28T16:55:18.723Z,44.60
2018-08-28T16:57:53.645Z,45.10
2018-08-28T17:00:28.569Z,46.80
2018-08-28T17:03:03.593Z,46.70
2018-08-28T17:05:37.671Z,47.50
2018-08-28T17:08:12.155Z,48.40
2018-08-28T17:10:47.619Z,49.40
2018-08-28T17:13:22.294Z,50.70
2018-08-28T17:15:57.678Z,51.10
2018-08-28T17:18:32.743Z,51.50
2018-08-28T17:21:07.171Z,52.00
2018-08-28T17:23:41.601Z,52.90
2018-08-28T17:26:17.284Z,52.40
2018-08-28T17:28:51.691Z,52.80
2018-08-28T17:31:26.193Z,53.60
2018-08-28T17:34:01.222Z,53.30
2018-08-28T17:36:35.343Z,54.20
2018-08-28T17:39:09.666Z,54.40
2018-08-28T17:41:44.498Z,54.80
2018-08-28T17:44:18.440Z,55.30
2018-08-28T17:46:52.850Z,55.70
2018-08-28T17:49:27.546Z,56.50
2018-08-28T17:52:02.096Z,56.80
2018-08-28T17:54:36.973Z,56.70
2018-08-28T17:57:11.530Z,57.00
2018-08-28T17:59:46.192Z,57.60
2018-08-28T18:02:20.588Z,58.00
2018-08-28T18:04:55.322Z,58.20
2018-08-28T18:07:29.660Z,58.50
2018-08-28T18:10:04.171Z,58.60
2018-08-28T18:12:38.616Z,58.90
2018-08-28T18:15:12.708Z,59.60
2018-08-28T18:17:47.757Z,59.80
2018-08-28T18:20:22.973Z,59.90
2018-08-28T18:22:57.886Z,60.50
2018-08-28T18:25:32.359Z,61.00
2018-08-28T18:28:07.086Z,61.40
2018-08-28T18:30:41.470Z,61.70
2018-08-28T18:33:18.751Z,62.60
2018-08-28T18:35:53.300Z,62.60
2018-08-28T18:38:28.464Z,62.70
2018-08-28T18:41:03.346Z,63.40
2018-08-28T18:43:38.262Z,63.10
2018-08-28T18:46:12.713Z,63.40
2018-08-28T18:48:47.035Z,63.60
2018-08-28T18:51:21.544Z,63.90
2018-08-28T18:53:56.880Z,64.20
2018-08-28T18:56:31.346Z,64.10
2018-08-28T18:59:06.091Z,64.50
2018-08-28T19:01:40.575Z,64.60
2018-08-28T19:04:15.155Z,64.80
2018-08-28T19:06:50.166Z,64.90
2018-08-28T19:09:25.641Z,64.70
2018-08-28T19:12:00.053Z,65.20
2018-08-28T19:14:35.265Z,65.80
2018-08-28T19:17:10.325Z,65.80
2018-08-28T19:19:44.888Z,65.60
2018-08-28T19:22:19.803Z,65.60
2018-08-28T19:24:54.726Z,65.70
2018-08-28T19:27:29.224Z,66.40
2018-08-28T19:30:03.707Z,66.60
2018-08-28T19:32:38.729Z,67.20
2018-08-28T19:35:13.155Z,68.00
2018-08-28T19:37:48.187Z,68.60
2018-08-28T19:40:22.970Z,68.50
2018-08-28T19:42:57.474Z,68.20
2018-08-28T19:45:32.599Z,68.20
2018-08-28T19:48:07.101Z,67.70
2018-08-28T19:50:41.621Z,68.30
2018-08-28T19:53:16.139Z,68.30
2018-08-28T19:55:50.961Z,68.60
2018-08-28T19:58:25.870Z,69.60
2018-08-28T20:01:00.335Z,70.30
2018-08-28T20:03:34.770Z,71.30
2018-08-28T20:06:08.936Z,71.20
2018-08-28T20:08:43.080Z,71.40
2018-08-28T20:11:17.514Z,71.60
2018-08-28T20:13:51.849Z,72.00
2018-08-28T20:16:26.481Z,72.20
2018-08-28T20:19:01.002Z,71.70
2018-08-28T20:21:35.363Z,72.10
2018-08-28T20:24:09.931Z,72.40
2018-08-28T20:26:44.723Z,72.70
2018-08-28T20:29:19.556Z,73.10
2018-08-28T20:31:54.005Z,73.10
2018-08-28T20:34:29.405Z,73.40
2018-08-28T20:37:03.703Z,73.70
2018-08-28T20:39:38.500Z,74.00
2018-08-28T20:42:13.050Z,74.30
2018-08-28T20:44:47.406Z,74.20
2018-08-28T20:47:21.670Z,74.40
2018-08-28T20:49:56.615Z,74.50
2018-08-28T20:52:31.152Z,74.70
2018-08-28T20:55:05.804Z,74.60
2018-08-28T20:57:40.367Z,74.80
2018-08-28T21:00:14.710Z,74.90
2018-08-28T21:02:49.773Z,75.10
2018-08-28T21:05:27.054Z,75.20
2018-08-28T21:08:02.105Z,75.50
2018-08-28T21:10:37.323Z,75.80
2018-08-28T21:13:11.464Z,76.20
2018-08-28T21:15:46.625Z,76.60
2018-08-28T21:18:21.048Z,76.90
2018-08-28T21:20:55.903Z,77.40
2018-08-28T21:23:30.829Z,77.80
2018-08-28T21:26:05.475Z,78.00
2018-08-28T21:28:39.955Z,78.30
2018-08-28T21:31:14.505Z,78.40
2018-08-28T21:33:48.669Z,78.30
2018-08-28T21:36:22.774Z,78.40
2018-08-28T21:38:57.245Z,78.30
2018-08-28T21:41:31.890Z,78.70
2018-08-28T21:44:06.068Z,78.90
2018-08-28T21:46:40.853Z,79.40
2018-08-28T21:49:18.578Z,79.50
2018-08-28T21:51:53.615Z,79.70
2018-08-28T21:54:27.932Z,79.90
2018-08-28T21:57:02.730Z,79.70
2018-08-28T21:59:37.793Z,79.90
2018-08-28T22:02:12.512Z,79.90
2018-08-28T22:04:47.060Z,80.00
2018-08-28T22:07:27.583Z,80.20
2018-08-28T22:10:01.691Z,80.00
2018-08-28T22:12:36.714Z,80.40
2018-08-28T22:15:12.163Z,80.10
2018-08-28T22:17:46.280Z,80.30
2018-08-28T22:20:21.403Z,80.00
2018-08-28T22:22:56.243Z,80.10
2018-08-28T22:25:30.383Z,79.90
2018-08-28T22:28:05.501Z,80.00
2018-08-28T22:30:40.768Z,80.20
2018-08-28T22:33:15.129Z,80.30
2018-08-28T22:35:49.113Z,80.50
2018-08-28T22:38:23.195Z,80.70
2018-08-28T22:40:58.324Z,80.80
2018-08-28T22:43:32.298Z,81.70
2018-08-28T22:46:07.152Z,81.10
2018-08-28T22:48:41.225Z,81.20
2018-08-28T22:51:15.739Z,81.20
2018-08-28T22:53:49.780Z,81.10
2018-08-28T22:56:24.482Z,81.10
2018-08-28T22:58:58.642Z,80.40
2018-08-28T23:01:33.074Z,80.20
2018-08-28T23:04:07.579Z,80.30
2018-08-28T23:06:41.573Z,79.80
2018-08-28T23:09:16.271Z,79.20
2018-08-28T23:11:51.115Z,79.00
2018-08-28T23:14:26.324Z,78.80
2018-08-28T23:17:00.858Z,77.90
2018-08-28T23:19:35.307Z,78.60
2018-08-28T23:22:09.435Z,78.30
2018-08-28T23:24:43.998Z,78.10
2018-08-28T23:27:18.337Z,78.10
2018-08-28T23:29:53.169Z,77.90
2018-08-28T23:32:28.045Z,78.20
2018-08-28T23:35:02.412Z,78.20
2018-08-28T23:37:37.555Z,78.20
2018-08-28T23:40:12.089Z,78.60
2018-08-28T23:42:46.148Z,78.30
2018-08-28T23:45:20.368Z,78.50
2018-08-28T23:47:54.439Z,78.60
2018-08-28T23:50:28.492Z,78.30
2018-08-28T23:53:02.618Z,78.30
2018-08-28T23:55:36.852Z,78.70
2018-08-28T23:58:10.924Z,78.40
